Time;durP1;ratioP1;P1;durP2;ratioP2;P2;SDS_P1;SDS_P2;PMS_P1;PMS_P2;Temp;Humidity;BMP_temperature;BMP_pressure;BME280_temperature;BME280_humidity;BME280_pressure;Samples;Min_cycle;Max_cycle;Signal;HPM_P1;HPM_P2
2022/03/27 00:00:13;;;;;;;11.02;4.75;;;;;;;10.78;84.10;103084.91;5035468;28;20052;-52
2022/03/27 00:02:41;;;;;;;9.57;4.70;;;;;;;10.64;84.49;103087.66;5035163;28;20450;-54
2022/03/27 00:05:10;;;;;;;7.70;4.60;;;;;;;10.56;85.58;103090.63;5036095;28;20046;-54
2022/03/27 00:07:38;;;;;;;9.00;4.68;;;;;;;10.51;86.48;103089.56;5035345;28;20408;-51
2022/03/27 00:10:06;;;;;;;8.45;4.68;;;;;;;10.57;85.76;103089.56;5034814;28;20460;-54
2022/03/27 00:12:34;;;;;;;7.28;4.28;;;;;;;10.60;85.42;103085.56;5038099;28;20041;-52
2022/03/27 00:15:03;;;;;;;10.23;4.47;;;;;;;10.54;85.64;103087.25;5044355;28;20049;-53
2022/03/27 00:17:33;;;;;;;10.20;4.72;;;;;;;10.59;85.59;103083.91;5037823;28;21559;-54
2022/03/27 00:20:05;;;;;;;9.13;4.90;;;;;;;10.53;86.04;103082.84;5035705;28;20052;-51
2022/03/27 00:22:32;;;;;;;8.68;4.70;;;;;;;10.55;86.23;103088.91;5044281;28;20046;-57
2022/03/27 00:25:00;;;;;;;9.30;4.85;;;;;;;10.60;85.71;103086.38;5065383;28;20041;-51
2022/03/27 00:27:28;;;;;;;8.02;4.68;;;;;;;10.61;85.54;103093.53;5055262;28;20037;-50
2022/03/27 00:29:56;;;;;;;8.98;5.20;;;;;;;10.62;85.43;103083.47;5053543;28;20116;-52
2022/03/27 00:32:23;;;;;;;10.43;4.95;;;;;;;10.65;86.03;103089.34;5052205;28;20052;-51
2022/03/27 00:34:53;;;;;;;9.07;5.03;;;;;;;10.69;84.91;103081.56;5054861;28;20041;-51
2022/03/27 00:37:22;;;;;;;7.97;4.60;;;;;;;10.67;85.17;103091.84;5053661;28;20055;-50
2022/03/27 00:39:49;;;;;;;9.25;4.60;;;;;;;10.75;85.35;103093.50;5054209;28;20041;-51
2022/03/27 00:42:20;;;;;;;8.85;5.15;;;;;;;10.85;84.37;103086.56;5052989;28;20056;-51
2022/03/27 00:44:47;;;;;;;10.20;4.90;;;;;;;10.85;83.65;103083.00;5048484;28;20057;-52
2022/03/27 00:47:15;;;;;;;9.52;5.00;;;;;;;10.76;84.37;103089.72;5054603;28;20041;-51
2022/03/27 00:49:43;;;;;;;8.75;5.18;;;;;;;10.70;84.78;103087.84;5054274;28;20041;-53
2022/03/27 00:52:10;;;;;;;8.52;4.72;;;;;;;10.74;84.83;103087.22;5053893;28;20529;-51
2022/03/27 00:54:38;;;;;;;9.50;4.55;;;;;;;10.78;84.39;103088.47;5037414;28;20037;-53
2022/03/27 00:57:06;;;;;;;9.68;5.28;;;;;;;10.78;83.85;103091.19;5033531;28;20062;-49
2022/03/27 00:59:33;;;;;;;8.55;5.10;;;;;;;10.82;83.86;103084.28;5034962;28;20126;-50
2022/03/27 01:02:01;;;;;;;10.90;5.03;;;;;;;10.83;83.44;103085.09;5053869;28;20037;-47
2022/03/27 01:04:29;;;;;;;9.05;4.70;;;;;;;10.86;83.35;103080.03;5054082;28;20091;-51
2022/03/27 01:06:58;;;;;;;9.43;5.25;;;;;;;10.90;82.81;103083.19;5053954;28;20044;-50
2022/03/27 01:09:38;;;;;;;8.45;5.10;;;;;;;10.88;83.27;103085.28;5044399;28;20076;-50
2022/03/27 01:12:23;;;;;;;8.15;4.95;;;;;;;10.83;82.56;103085.09;5049030;28;20049;-49
2022/03/27 01:14:52;;;;;;;9.35;5.78;;;;;;;10.73;83.29;103082.00;5016392;28;20393;-48
2022/03/27 01:17:23;;;;;;;7.68;5.13;;;;;;;10.61;83.96;103077.19;5033820;28;20045;-47
2022/03/27 01:19:54;;;;;;;8.40;4.95;;;;;;;10.52;84.25;103081.16;5034105;28;20045;-50
2022/03/27 01:22:23;;;;;;;8.88;4.70;;;;;;;10.45;84.95;103085.78;5035773;28;20045;-49
2022/03/27 01:24:52;;;;;;;8.02;5.00;;;;;;;10.52;85.13;103083.91;5032532;28;20087;-49
2022/03/27 01:27:20;;;;;;;11.35;5.45;;;;;;;10.57;84.90;103086.00;5032498;28;20057;-52
2022/03/27 01:29:48;;;;;;;9.40;5.25;;;;;;;10.54;84.62;103087.25;5017562;28;20128;-52
2022/03/27 01:32:17;;;;;;;10.60;5.70;;;;;;;10.55;85.01;103078.00;5032641;28;20476;-52
2022/03/27 01:34:47;;;;;;;8.77;5.55;;;;;;;10.59;84.48;103090.19;5046580;28;20045;-48
2022/03/27 01:37:15;;;;;;;10.88;5.55;;;;;;;10.55;83.95;103082.63;5053682;28;20569;-47
2022/03/27 01:39:43;;;;;;;10.25;5.38;;;;;;;10.45;84.58;103080.34;5053164;28;20041;-50
2022/03/27 01:42:12;;;;;;;12.95;6.65;;;;;;;10.37;85.21;103080.56;5041223;28;20037;-50
2022/03/27 01:44:40;;;;;;;9.30;5.20;;;;;;;10.18;86.22;103088.50;5052045;28;20045;-49
2022/03/27 01:47:07;;;;;;;9.90;5.20;;;;;;;10.14;87.22;103084.50;5050576;28;20411;-48
2022/03/27 01:49:35;;;;;;;9.85;5.40;;;;;;;10.22;87.41;103083.47;5051687;28;20045;-50
2022/03/27 01:52:04;;;;;;;11.45;5.65;;;;;;;10.09;87.13;103084.31;5033670;28;20053;-50
2022/03/27 01:54:31;;;;;;;10.48;5.97;;;;;;;10.03;87.76;103087.88;5040891;28;20051;-51
2022/03/27 01:56:59;;;;;;;9.73;5.80;;;;;;;10.00;88.07;103080.09;5053004;28;20506;-50
2022/03/27 01:59:27;;;;;;;9.30;5.35;;;;;;;9.91;88.46;103078.63;5050255;28;20128;-50
2022/03/27 02:01:54;;;;;;;9.50;6.30;;;;;;;9.91;89.34;103070.47;5035311;28;20041;-49
2022/03/27 02:04:23;;;;;;;10.52;6.40;;;;;;;9.92;89.39;103067.53;5035937;28;20041;-52
2022/03/27 02:06:50;;;;;;;10.23;5.72;;;;;;;9.94;89.05;103078.22;5051545;28;20048;-47
2022/03/27 02:09:18;;;;;;;10.77;6.10;;;;;;;9.92;89.66;103077.59;5052046;28;20041;-50
2022/03/27 02:11:45;;;;;;;11.30;6.07;;;;;;;9.86;89.85;103076.56;5051097;28;20052;-49
2022/03/27 02:14:13;;;;;;;11.65;6.50;;;;;;;9.80;89.96;103075.47;5053199;28;20381;-54
2022/03/27 02:16:41;;;;;;;10.68;6.72;;;;;;;9.72;90.94;103072.97;5052941;28;20049;-47
2022/03/27 02:19:10;;;;;;;10.85;7.30;;;;;;;9.64;91.81;103078.59;5051808;28;20083;-50
2022/03/27 02:21:39;;;;;;;12.07;7.53;;;;;;;9.61;92.28;103084.44;5044958;28;20045;-50
2022/03/27 02:24:08;;;;;;;12.30;7.25;;;;;;;9.53;92.89;103074.59;5032854;28;20476;-51
2022/03/27 02:26:42;;;;;;;11.55;7.40;;;;;;;9.53;93.43;103080.03;5031878;28;20057;-53
2022/03/27 02:29:14;;;;;;;12.00;7.50;;;;;;;9.47;93.89;103080.03;5032919;28;20038;-51
2022/03/27 02:31:43;;;;;;;10.43;6.90;;;;;;;9.32;95.11;103083.75;5034330;28;20068;-52
2022/03/27 02:34:11;;;;;;;10.38;6.80;;;;;;;9.50;95.61;103090.47;5044390;28;20080;-51
2022/03/27 02:36:38;;;;;;;12.20;7.45;;;;;;;9.68;94.14;103088.03;5031737;28;20038;-52
2022/03/27 02:39:06;;;;;;;11.63;7.75;;;;;;;9.72;93.09;103089.31;5031723;28;20052;-50
2022/03/27 02:41:34;;;;;;;11.77;7.90;;;;;;;9.67;93.63;103086.38;5035307;28;20042;-51
2022/03/27 02:44:01;;;;;;;10.23;6.80;;;;;;;9.56;94.11;103086.97;5032638;28;20034;-49
2022/03/27 02:46:29;;;;;;;11.05;7.60;;;;;;;9.44;95.52;103084.00;5031558;28;20049;-51
2022/03/27 02:48:57;;;;;;;11.07;8.30;;;;;;;9.41;95.63;103086.28;5032824;28;20050;-53
2022/03/27 02:51:24;;;;;;;11.23;8.10;;;;;;;9.36;95.72;103081.47;5036430;28;20519;-48
2022/03/27 02:53:52;;;;;;;12.13;7.88;;;;;;;9.33;96.44;103085.44;5032720;28;20084;-51
2022/03/27 02:56:20;;;;;;;10.98;7.80;;;;;;;9.31;95.81;103082.06;5032965;28;20034;-49
2022/03/27 02:58:47;;;;;;;12.23;7.63;;;;;;;9.25;96.49;103087.47;5015346;28;20062;-50
2022/03/27 03:01:15;;;;;;;11.50;8.02;;;;;;;9.19;96.61;103078.25;5037947;28;21732;-50
2022/03/27 03:03:43;;;;;;;11.18;8.02;;;;;;;9.05;97.99;103076.53;5031080;28;20092;-53
2022/03/27 03:06:11;;;;;;;11.00;7.78;;;;;;;9.03;98.50;103074.00;5032918;28;20053;-48
2022/03/27 03:08:39;;;;;;;11.75;8.77;;;;;;;8.83;99.05;103073.91;5032493;28;20046;-46
2022/03/27 03:11:06;;;;;;;11.23;8.38;;;;;;;8.84;100.00;103075.56;5031825;28;20034;-49
2022/03/27 03:13:34;;;;;;;11.68;8.68;;;;;;;8.91;100.00;103068.28;5031030;28;20041;-53
2022/03/27 03:16:02;;;;;;;11.75;8.32;;;;;;;9.00;99.70;103068.97;5031584;28;20044;-50
2022/03/27 03:18:33;;;;;;;11.15;8.73;;;;;;;9.07;98.79;103064.41;5033107;28;20087;-50
2022/03/27 03:21:01;;;;;;;13.50;8.15;;;;;;;9.05;98.31;103069.19;5035812;28;20128;-48
2022/03/27 03:23:29;;;;;;;9.90;7.60;;;;;;;9.04;98.31;103062.06;5035528;28;20055;-48
2022/03/27 03:25:57;;;;;;;9.90;7.35;;;;;;;9.08;98.46;103068.78;5036061;28;20037;-48
2022/03/27 03:28:35;;;;;;;11.40;8.35;;;;;;;9.12;97.73;103067.34;5034724;28;20048;-49
2022/03/27 03:31:03;;;;;;;11.02;7.43;;;;;;;8.95;98.97;103066.84;5034326;28;20034;-51
2022/03/27 03:33:31;;;;;;;12.10;8.45;;;;;;;9.01;99.45;103064.38;5035501;28;20488;-48
2022/03/27 03:35:58;;;;;;;12.85;8.73;;;;;;;9.03;98.77;103062.28;5042580;28;20109;-53
2022/03/27 03:38:26;;;;;;;13.43;8.88;;;;;;;9.03;99.36;103067.72;5050893;28;20049;-53
2022/03/27 03:40:54;;;;;;;12.05;8.63;;;;;;;9.12;99.13;103061.09;5040392;28;20052;-49
2022/03/27 03:43:22;;;;;;;11.88;8.18;;;;;;;9.15;99.10;103068.81;5036192;28;20395;-53
2022/03/27 03:45:49;;;;;;;10.57;8.38;;;;;;;9.23;98.33;103068.63;5047079;28;20041;-52
2022/03/27 03:48:21;;;;;;;11.30;8.13;;;;;;;9.12;98.63;103061.09;5043046;28;20106;-51
2022/03/27 03:50:49;;;;;;;12.13;8.43;;;;;;;9.00;100.00;103063.53;5037145;28;20488;-51
2022/03/27 03:53:16;;;;;;;10.98;7.93;;;;;;;9.15;100.00;103063.38;5018567;28;20069;-51
2022/03/27 03:55:44;;;;;;;10.57;7.93;;;;;;;9.27;98.70;103059.03;5035304;28;20052;-52
2022/03/27 03:58:11;;;;;;;13.10;9.30;;;;;;;9.26;97.96;103068.25;5019034;28;20053;-49
2022/03/27 04:00:39;;;;;;;13.02;9.05;;;;;;;9.18;98.42;103060.25;5035053;28;20048;-54
2022/03/27 04:03:07;;;;;;;12.40;8.95;;;;;;;9.12;99.53;103066.53;5035129;28;20072;-51
2022/03/27 04:05:35;;;;;;;14.30;9.00;;;;;;;9.07;99.34;103058.13;5034019;28;20584;-50
2022/03/27 04:08:03;;;;;;;15.57;10.15;;;;;;;9.19;98.59;103061.94;5033665;28;20052;-51
2022/03/27 04:10:31;;;;;;;12.93;9.98;;;;;;;9.25;97.83;103066.56;5034352;28;20042;-50
2022/03/27 04:12:59;;;;;;;12.27;8.98;;;;;;;9.24;96.69;103064.88;5035566;28;20041;-51
2022/03/27 04:15:26;;;;;;;9.38;7.47;;;;;;;9.26;96.91;103057.38;5033994;28;20172;-51
2022/03/27 04:18:14;;;;;;;10.35;7.95;;;;;;;9.26;95.65;103065.53;5035172;28;20041;-53
2022/03/27 04:20:43;;;;;;;11.25;9.13;;;;;;;9.07;96.45;103058.97;5034072;28;20176;-50
2022/03/27 04:23:11;;;;;;;12.07;9.65;;;;;;;8.76;98.79;103064.03;5034748;28;20491;-51
2022/03/27 04:25:39;;;;;;;11.95;9.20;;;;;;;8.74;99.05;103064.25;5035014;28;20401;-53
2022/03/27 04:28:08;;;;;;;11.65;9.65;;;;;;;8.77;99.72;103057.56;5048734;28;20093;-53
2022/03/27 04:30:37;;;;;;;13.40;10.93;;;;;;;8.89;97.96;103056.78;5044298;28;20044;-55
2022/03/27 04:33:07;;;;;;;13.55;10.75;;;;;;;8.93;98.15;103057.22;5048835;28;20488;-50
2022/03/27 04:35:35;;;;;;;13.20;10.10;;;;;;;8.79;97.94;103067.19;5036927;28;20045;-52
2022/03/27 04:38:03;;;;;;;13.32;9.63;;;;;;;8.49;99.24;103067.44;5041992;28;20542;-53
2022/03/27 04:40:31;;;;;;;12.82;9.23;;;;;;;8.38;99.35;103069.81;5046575;28;20037;-53
2022/03/27 04:42:58;;;;;;;13.98;10.73;;;;;;;8.28;100.00;103070.19;5053424;28;20517;-54
2022/03/27 04:45:26;;;;;;;12.15;9.43;;;;;;;8.15;100.00;103076.31;5032295;28;20068;-54
2022/03/27 04:47:54;;;;;;;13.55;10.60;;;;;;;8.08;100.00;103076.28;5035589;28;20045;-51
2022/03/27 04:50:21;;;;;;;14.82;11.50;;;;;;;8.24;100.00;103077.03;5035611;28;20045;-54
2022/03/27 04:52:49;;;;;;;14.30;10.50;;;;;;;8.43;100.00;103075.53;5034252;28;20033;-52
2022/03/27 04:55:17;;;;;;;13.93;10.55;;;;;;;8.49;100.00;103083.75;5034450;28;20053;-53
2022/03/27 04:57:46;;;;;;;13.43;10.75;;;;;;;8.57;99.29;103085.44;5034055;28;20049;-53
2022/03/27 05:00:14;;;;;;;15.98;12.35;;;;;;;8.49;99.75;103081.03;5040227;28;20049;-48
2022/03/27 05:02:43;;;;;;;15.32;11.68;;;;;;;8.36;100.00;103086.31;5033938;28;20076;-48
2022/03/27 05:05:11;;;;;;;18.90;11.68;;;;;;;8.40;100.00;103081.38;5033161;28;20041;-47
2022/03/27 05:07:40;;;;;;;13.95;11.25;;;;;;;8.45;100.00;103081.63;5034296;28;20037;-49
2022/03/27 05:10:08;;;;;;;16.88;13.25;;;;;;;8.43;99.91;103089.94;5040302;28;20439;-51
2022/03/27 05:12:37;;;;;;;18.58;14.18;;;;;;;8.45;100.00;103090.59;5052797;28;20136;-52
2022/03/27 05:15:05;;;;;;;18.63;14.35;;;;;;;8.32;100.00;103093.16;5053824;28;20045;-50
2022/03/27 05:17:33;;;;;;;16.42;13.20;;;;;;;8.25;100.00;103093.13;5052315;28;20053;-47
2022/03/27 05:20:03;;;;;;;17.77;14.18;;;;;;;8.17;100.00;103100.56;5022408;28;20059;-47
2022/03/27 05:22:30;;;;;;;16.30;12.90;;;;;;;8.23;100.00;103102.53;5042756;28;20040;-47
2022/03/27 05:24:58;;;;;;;20.15;15.23;;;;;;;8.32;100.00;103093.16;5053291;28;20059;-50
2022/03/27 05:27:26;;;;;;;21.45;16.67;;;;;;;8.25;100.00;103097.69;5052735;28;20040;-50
2022/03/27 05:29:54;;;;;;;18.95;15.20;;;;;;;8.31;100.00;103084.19;5051691;28;20527;-50
2022/03/27 05:32:21;;;;;;;20.95;16.15;;;;;;;8.41;99.57;103092.03;5053445;28;20402;-51
2022/03/27 05:34:49;;;;;;;21.17;16.30;;;;;;;8.28;100.00;103098.16;5053656;28;20049;-52
2022/03/27 05:37:16;;;;;;;18.52;14.48;;;;;;;8.19;100.00;103098.50;5051356;28;20041;-54
2022/03/27 05:39:44;;;;;;;18.50;13.73;;;;;;;8.11;100.00;103091.34;5048346;28;20459;-54
2022/03/27 05:42:12;;;;;;;24.50;16.38;;;;;;;8.08;100.00;103092.56;5051691;28;20041;-54
2022/03/27 05:44:39;;;;;;;21.70;16.40;;;;;;;8.07;100.00;103088.16;5053070;28;20037;-51
2022/03/27 05:47:07;;;;;;;24.27;18.42;;;;;;;7.95;100.00;103084.28;5051083;28;20041;-51
2022/03/27 05:49:34;;;;;;;23.02;17.35;;;;;;;7.86;100.00;103089.03;5051388;28;20438;-51
2022/03/27 05:52:02;;;;;;;23.63;18.98;;;;;;;7.77;100.00;103092.03;5048698;28;20046;-52
2022/03/27 05:54:30;;;;;;;22.17;17.98;;;;;;;7.84;100.00;103095.66;5033918;28;20403;-57
2022/03/27 05:56:58;;;;;;;24.02;19.17;;;;;;;7.92;100.00;103097.44;5016117;28;20042;-55
2022/03/27 05:59:25;;;;;;;25.25;19.50;;;;;;;7.95;100.00;103107.91;5033509;28;20042;-51
2022/03/27 06:01:53;;;;;;;26.35;20.08;;;;;;;7.99;100.00;103103.75;5033454;28;20041;-53
2022/03/27 06:04:20;;;;;;;24.83;18.17;;;;;;;7.95;100.00;103111.44;5032958;28;20111;-51
2022/03/27 06:06:49;;;;;;;23.90;19.20;;;;;;;8.02;100.00;103115.06;5042567;28;20048;-54
2022/03/27 06:09:21;;;;;;;23.17;18.60;;;;;;;7.95;100.00;103119.59;5051337;28;20045;-55
2022/03/27 06:11:49;;;;;;;25.92;18.90;;;;;;;7.96;100.00;103115.84;5052687;28;20163;-51
2022/03/27 06:14:16;;;;;;;24.27;18.60;;;;;;;7.88;100.00;103126.81;5052981;28;20072;-52
2022/03/27 06:16:44;;;;;;;22.20;17.73;;;;;;;7.81;100.00;103120.47;5047875;28;20042;-50
2022/03/27 06:19:12;;;;;;;24.73;17.92;;;;;;;7.78;100.00;103131.72;5031727;28;20055;-53
2022/03/27 06:21:39;;;;;;;22.50;17.92;;;;;;;7.85;100.00;103122.63;5033174;28;20120;-52
2022/03/27 06:24:07;;;;;;;25.45;18.42;;;;;;;7.84;100.00;103129.09;5033113;28;20634;-51
2022/03/27 06:26:34;;;;;;;24.52;18.48;;;;;;;7.78;100.00;103129.03;5033099;28;20038;-50
2022/03/27 06:29:03;;;;;;;23.38;17.38;;;;;;;7.78;100.00;103132.56;5034346;28;20040;-55
2022/03/27 06:31:30;;;;;;;20.95;16.77;;;;;;;7.88;100.00;103137.69;5033015;28;20052;-50
2022/03/27 06:33:58;;;;;;;22.55;17.15;;;;;;;7.98;100.00;103140.91;5032740;28;20052;-53
2022/03/27 06:36:26;;;;;;;20.67;15.98;;;;;;;7.85;100.00;103138.06;5037211;28;20042;-52
2022/03/27 06:38:53;;;;;;;21.92;16.13;;;;;;;7.96;100.00;103136.72;5052333;28;20033;-51
2022/03/27 06:41:21;;;;;;;21.00;16.52;;;;;;;8.01;100.00;103137.81;5046154;28;20043;-54
2022/03/27 06:43:48;;;;;;;20.00;15.75;;;;;;;8.13;100.00;103138.16;5035779;28;20041;-53
2022/03/27 06:46:17;;;;;;;20.80;16.40;;;;;;;8.23;100.00;103143.25;5052642;28;20045;-53
2022/03/27 06:48:45;;;;;;;21.25;15.80;;;;;;;8.08;99.24;103143.28;5052908;28;20051;-51
2022/03/27 06:51:13;;;;;;;18.08;14.98;;;;;;;7.84;100.00;103136.38;5051384;28;20045;-55
2022/03/27 06:53:42;;;;;;;18.33;14.43;;;;;;;7.69;100.00;103137.25;5053250;28;20052;-51
2022/03/27 06:56:10;;;;;;;17.65;14.60;;;;;;;7.65;100.00;103146.00;5054293;28;20045;-52
2022/03/27 06:58:37;;;;;;;17.42;13.68;;;;;;;7.58;100.00;103136.94;5068925;28;20059;-54
2022/03/27 07:03:51;;;;;;;;;;;;;;;7.68;100.00;103137.47;5051338;28;20096;-54
2022/03/27 07:06:19;;;;;;;17.02;12.82;;;;;;;7.66;100.00;103137.66;5048354;28;19921;-56
2022/03/27 07:08:47;;;;;;;15.23;11.95;;;;;;;7.77;99.68;103140.88;5052185;28;20045;-57
2022/03/27 07:11:15;;;;;;;16.40;12.75;;;;;;;7.86;98.04;103137.03;5035012;28;20077;-52
2022/03/27 07:13:43;;;;;;;16.27;13.02;;;;;;;7.65;98.79;103141.41;5037543;28;20042;-57
2022/03/27 07:16:11;;;;;;;16.45;12.25;;;;;;;7.66;100.00;103136.81;5039120;28;20037;-50
2022/03/27 07:18:38;;;;;;;17.48;12.95;;;;;;;7.77;99.58;103141.75;5036132;28;20487;-55
2022/03/27 07:21:06;;;;;;;18.75;14.52;;;;;;;7.50;100.00;103140.59;5043663;28;20048;-53
2022/03/27 07:23:34;;;;;;;16.77;13.95;;;;;;;7.46;100.00;103131.16;5047189;28;20045;-54
2022/03/27 07:26:02;;;;;;;18.02;14.10;;;;;;;7.44;100.00;103139.50;5035099;28;20076;-52
2022/03/27 07:28:31;;;;;;;19.80;15.00;;;;;;;7.54;100.00;103139.19;5036094;28;20559;-51
2022/03/27 07:30:59;;;;;;;28.90;23.40;;;;;;;7.62;100.00;103130.91;5036140;28;20049;-54
2022/03/27 07:33:27;;;;;;;18.48;14.00;;;;;;;7.69;99.64;103134.56;5039793;28;20499;-51
2022/03/27 07:35:56;;;;;;;19.65;14.98;;;;;;;7.82;98.41;103127.63;5049445;28;20064;-55
2022/03/27 07:38:24;;;;;;;17.42;13.70;;;;;;;7.91;98.07;103129.13;5052293;28;20045;-50
2022/03/27 07:40:51;;;;;;;15.75;11.77;;;;;;;7.98;96.98;103130.06;5053963;28;20041;-52
2022/03/27 07:43:19;;;;;;;18.10;14.57;;;;;;;8.02;95.40;103136.78;5048976;28;20395;-54
2022/03/27 07:45:46;;;;;;;20.42;15.65;;;;;;;7.91;95.27;103134.56;5035649;28;20512;-54
2022/03/27 07:48:14;;;;;;;17.88;12.85;;;;;;;7.94;96.55;103134.22;5034308;28;20069;-52
2022/03/27 07:50:42;;;;;;;18.17;13.02;;;;;;;7.95;95.29;103135.88;5042842;28;20440;-54
2022/03/27 07:53:10;;;;;;;20.58;15.32;;;;;;;7.98;96.03;103134.66;5052442;28;20068;-51
2022/03/27 07:55:38;;;;;;;15.82;12.63;;;;;;;7.85;94.68;103147.06;5034185;28;20057;-53
2022/03/27 07:58:06;;;;;;;16.92;13.07;;;;;;;7.71;95.91;103138.97;5033894;28;20500;-54
2022/03/27 08:00:34;;;;;;;17.58;13.10;;;;;;;7.63;96.23;103143.47;5035463;28;20067;-48
2022/03/27 08:03:01;;;;;;;18.67;14.20;;;;;;;7.60;95.91;103146.56;5038534;28;20029;-48
2022/03/27 08:05:30;;;;;;;18.67;13.77;;;;;;;7.59;95.93;103144.03;5055177;28;20049;-48
2022/03/27 08:07:57;;;;;;;16.50;13.52;;;;;;;7.59;96.32;103150.31;5055091;28;20045;-48
2022/03/27 08:10:25;;;;;;;16.58;13.40;;;;;;;7.34;97.21;103138.94;5037841;28;20384;-50
2022/03/27 08:12:53;;;;;;;19.15;13.88;;;;;;;7.42;97.79;103135.28;5054236;28;20077;-50
2022/03/27 08:15:21;;;;;;;19.15;15.45;;;;;;;7.54;97.11;103144.59;5054646;28;20045;-50
2022/03/27 08:17:54;;;;;;;18.67;13.15;;;;;;;7.53;96.75;103142.06;5055234;28;20098;-50
2022/03/27 08:20:24;;;;;;;16.85;14.35;;;;;;;7.58;96.52;103139.66;5054004;28;20051;-50
2022/03/27 08:22:53;;;;;;;19.00;14.43;;;;;;;7.67;96.93;103139.34;5031610;28;20479;-49
2022/03/27 08:28:09;;;;;;;18.95;15.07;;;;;;;7.75;96.04;103134.84;5033969;28;20042;-49
2022/03/27 08:30:37;;;;;;;19.35;15.00;;;;;;;7.74;96.01;103138.56;5034869;28;20045;-53
2022/03/27 08:33:04;;;;;;;18.02;13.90;;;;;;;7.75;95.98;103143.81;5035617;28;20488;-52
2022/03/27 08:35:32;;;;;;;16.20;13.68;;;;;;;7.97;95.15;103139.25;5034559;28;20045;-52
2022/03/27 08:38:00;;;;;;;16.45;13.68;;;;;;;7.93;93.33;103143.38;5034533;28;20550;-57
2022/03/27 08:40:28;;;;;;;18.17;14.68;;;;;;;7.88;94.10;103143.09;5032676;28;20132;-54
2022/03/27 08:42:56;;;;;;;19.08;15.38;;;;;;;7.92;94.40;103141.69;5041287;28;20123;-53
2022/03/27 08:45:24;;;;;;;17.10;14.55;;;;;;;8.08;95.02;103141.44;5054216;28;20045;-55
2022/03/27 08:47:52;;;;;;;17.83;14.25;;;;;;;8.19;93.21;103137.34;5054259;28;20048;-57
2022/03/27 08:50:29;;;;;;;18.10;14.23;;;;;;;8.32;92.02;103142.91;5052964;28;20048;-55
2022/03/27 08:53:06;;;;;;;16.52;13.30;;;;;;;8.47;91.64;103140.16;5051464;28;20033;-54
2022/03/27 08:55:49;;;;;;;17.85;13.77;;;;;;;8.63;90.91;103124.56;5054352;28;20106;-56
2022/03/27 08:58:19;;;;;;;17.58;13.90;;;;;;;8.78;89.78;103132.63;5054067;28;20053;-54
2022/03/27 09:00:47;;;;;;;18.98;14.63;;;;;;;8.70;88.95;103131.72;5036638;28;20143;-53
2022/03/27 09:03:14;;;;;;;17.65;13.80;;;;;;;8.64;88.81;103127.09;5032729;28;20044;-52
2022/03/27 09:05:42;;;;;;;18.15;14.35;;;;;;;8.66;89.20;103126.88;5034315;28;20060;-52
2022/03/27 09:08:12;;;;;;;20.35;13.45;;;;;;;8.71;87.61;103132.59;5032654;28;20045;-55
2022/03/27 09:10:41;;;;;;;17.33;14.68;;;;;;;8.75;87.54;103131.13;5033708;28;20076;-48
2022/03/27 09:13:19;;;;;;;18.05;14.07;;;;;;;8.80;87.29;103128.66;5034882;28;20095;-56
2022/03/27 09:16:02;;;;;;;18.33;14.00;;;;;;;8.77;86.54;103123.63;5034047;28;20079;-53
2022/03/27 09:18:44;;;;;;;19.60;13.52;;;;;;;8.76;86.98;103127.41;5033931;28;20437;-52
2022/03/27 09:21:17;;;;;;;16.77;12.48;;;;;;;8.89;85.89;103122.03;5034148;28;20480;-54
2022/03/27 09:23:46;;;;;;;16.92;14.02;;;;;;;8.98;85.32;103122.72;5052281;28;20045;-52
2022/03/27 09:26:17;;;;;;;18.17;12.52;;;;;;;9.00;84.23;103136.13;5052464;28;20056;-53
2022/03/27 09:28:50;;;;;;;17.05;13.25;;;;;;;9.05;84.64;103120.03;5053799;28;20052;-55
2022/03/27 09:31:18;;;;;;;14.73;12.48;;;;;;;9.11;83.35;103124.66;5052317;28;20044;-52
2022/03/27 09:34:04;;;;;;;17.60;12.50;;;;;;;9.21;81.86;103125.13;5051699;28;20120;-54
2022/03/27 09:36:39;;;;;;;15.85;12.68;;;;;;;9.29;81.12;103124.13;5054138;28;20083;-50
2022/03/27 09:39:19;;;;;;;16.73;12.50;;;;;;;9.37;81.39;103113.88;5053886;28;20128;-51
2022/03/27 09:41:51;;;;;;;15.25;11.73;;;;;;;9.41;79.69;103119.78;5046369;28;20069;-55
2022/03/27 09:44:24;;;;;;;17.33;10.02;;;;;;;9.52;80.71;103115.63;5033377;28;20092;-57
2022/03/27 09:47:02;;;;;;;17.40;12.85;;;;;;;9.60;79.18;103118.16;5032330;28;20042;-52
2022/03/27 09:49:35;;;;;;;14.10;11.68;;;;;;;9.58;78.77;103109.38;5033577;28;20103;-53
2022/03/27 09:52:19;;;;;;;17.77;11.75;;;;;;;9.63;79.06;103111.47;5034332;28;20040;-51
2022/03/27 09:54:56;;;;;;;15.73;10.85;;;;;;;9.70;78.86;103115.06;5032158;28;20049;-51
2022/03/27 09:57:34;;;;;;;15.82;11.50;;;;;;;9.77;78.69;103096.84;5033123;28;20045;-53
2022/03/27 10:00:18;;;;;;;14.90;11.60;;;;;;;9.86;77.99;103111.09;5033526;28;20037;-52
2022/03/27 10:02:48;;;;;;;15.35;11.30;;;;;;;9.91;76.92;103103.13;5049181;28;20466;-52
2022/03/27 10:05:20;;;;;;;13.25;9.95;;;;;;;9.95;77.31;103097.06;5052954;28;20091;-50
2022/03/27 10:07:54;;;;;;;17.70;10.70;;;;;;;9.99;77.07;103095.63;5051772;28;20135;-50
2022/03/27 10:10:24;;;;;;;14.65;11.15;;;;;;;10.04;77.15;103086.81;5051589;28;20049;-53
2022/03/27 10:12:56;;;;;;;15.13;11.70;;;;;;;10.07;76.95;103083.66;5050376;28;20041;-51
2022/03/27 10:15:28;;;;;;;14.45;11.73;;;;;;;10.13;76.26;103085.56;5052157;28;20045;-51
2022/03/27 10:18:03;;;;;;;15.23;10.20;;;;;;;10.18;75.86;103087.69;5052179;28;20044;-53
2022/03/27 10:20:36;;;;;;;15.00;11.70;;;;;;;10.22;75.39;103081.59;5058562;28;20108;-57
2022/03/27 10:23:11;;;;;;;16.83;11.48;;;;;;;10.26;75.41;103068.38;5028902;28;20045;-58
2022/03/27 10:25:41;;;;;;;13.98;11.20;;;;;;;10.37;74.52;103064.22;5037958;28;20041;-55
2022/03/27 10:28:09;;;;;;;15.02;11.85;;;;;;;10.35;73.87;103061.69;5036442;28;20042;-55
2022/03/27 10:30:38;;;;;;;14.38;11.43;;;;;;;10.35;74.42;103060.88;5053213;28;20048;-55
2022/03/27 10:33:07;;;;;;;14.57;12.00;;;;;;;10.39;74.87;103062.09;5044494;28;20519;-54
2022/03/27 10:36:04;;;;;;;17.27;11.20;;;;;;;10.45;75.17;103061.25;5019733;28;20041;-56
2022/03/27 10:38:35;;;;;;;15.90;11.80;;;;;;;10.54;73.24;103064.63;5036158;28;20045;-56
2022/03/27 10:41:27;;;;;;;14.75;11.40;;;;;;;10.57;73.70;103054.13;5041231;28;20045;-56
2022/03/27 10:44:08;;;;;;;14.18;11.07;;;;;;;10.66;73.04;103057.47;5055459;28;20048;-52
2022/03/27 10:46:38;;;;;;;13.95;11.25;;;;;;;10.75;71.82;103060.78;5055558;28;20048;-54
2022/03/27 10:49:14;;;;;;;15.35;11.60;;;;;;;10.80;71.94;103052.78;5056799;28;20132;-52
2022/03/27 10:51:43;;;;;;;13.98;10.85;;;;;;;10.85;71.52;103053.00;5053489;28;20128;-52
2022/03/27 10:54:19;;;;;;;14.00;10.77;;;;;;;10.89;70.70;103046.03;5055323;28;20045;-52
2022/03/27 10:56:51;;;;;;;14.80;10.27;;;;;;;10.95;70.34;103047.91;5039210;28;20044;-51
2022/03/27 10:59:21;;;;;;;15.90;11.50;;;;;;;11.00;69.70;103041.81;5051847;28;20055;-51
2022/03/27 11:01:54;;;;;;;14.43;10.82;;;;;;;11.03;69.49;103053.13;5056350;28;20052;-53
2022/03/27 11:04:36;;;;;;;14.48;10.32;;;;;;;11.08;69.02;103047.84;5038594;28;20388;-50
2022/03/27 11:07:20;;;;;;;13.30;10.68;;;;;;;11.11;67.28;103046.56;5057037;28;20067;-54
2022/03/27 11:09:47;;;;;;;11.50;8.55;;;;;;;11.21;63.89;103040.69;5054134;28;20033;-51
2022/03/27 11:12:24;;;;;;;13.15;9.52;;;;;;;11.25;64.18;103041.91;5055003;28;20049;-53
2022/03/27 11:15:03;;;;;;;12.95;9.10;;;;;;;11.29;62.61;103032.22;5056459;28;20139;-55
2022/03/27 11:17:40;;;;;;;11.73;7.90;;;;;;;11.48;61.21;103041.38;5056488;28;20560;-55
2022/03/27 11:20:23;;;;;;;16.95;8.55;;;;;;;11.58;60.17;103035.41;5037092;28;20033;-50
2022/03/27 11:22:52;;;;;;;11.15;7.78;;;;;;;11.72;57.89;103035.09;5036449;28;20140;-50
2022/03/27 11:25:27;;;;;;;10.23;7.55;;;;;;;11.78;57.19;103033.38;5034921;28;20053;-51
2022/03/27 11:28:11;;;;;;;11.23;7.25;;;;;;;11.70;56.02;103025.47;5034862;28;20038;-51
2022/03/27 11:30:40;;;;;;;9.30;6.13;;;;;;;11.68;54.47;103022.09;5051588;28;20037;-51
2022/03/27 11:33:14;;;;;;;10.98;7.10;;;;;;;11.76;55.70;103024.59;5039450;28;20063;-53